createdAt,value
2022-08-31T00:00:47.469Z,99.90
2022-08-31T00:03:51.416Z,99.90
2022-08-31T00:06:37.253Z,99.90
2022-08-31T00:09:22.500Z,99.90
2022-08-31T00:12:08.194Z,99.90
2022-08-31T00:14:54.310Z,99.90
2022-08-31T00:17:39.954Z,99.90
2022-08-31T00:20:33.090Z,99.90
2022-08-31T00:23:19.574Z,99.90
2022-08-31T00:26:05.084Z,99.90
2022-08-31T00:28:50.587Z,99.90
2022-08-31T00:31:36.525Z,99.90
2022-08-31T00:34:22.879Z,99.90
2022-08-31T00:37:08.363Z,99.90
2022-08-31T00:39:54.861Z,99.90
2022-08-31T00:42:40.100Z,99.90
2022-08-31T00:45:26.290Z,99.90
2022-08-31T00:48:11.643Z,99.90
2022-08-31T00:50:58.003Z,99.90
2022-08-31T00:53:45.152Z,99.90
2022-08-31T00:56:31.441Z,99.90
2022-08-31T00:59:19.377Z,99.90
2022-08-31T01:02:06.519Z,99.90
2022-08-31T01:04:52.139Z,99.90
2022-08-31T01:07:38.422Z,99.90
2022-08-31T01:10:26.001Z,99.90
2022-08-31T01:13:14.178Z,99.90
2022-08-31T01:16:05.145Z,99.90
2022-08-31T01:18:53.315Z,99.90
2022-08-31T01:21:52.773Z,99.90
2022-08-31T01:24:41.204Z,99.90
2022-08-31T01:27:29.821Z,99.90
2022-08-31T01:30:23.767Z,99.90
2022-08-31T01:33:09.843Z,99.90
2022-08-31T01:35:56.336Z,99.90
2022-08-31T01:38:42.790Z,99.90
2022-08-31T01:41:28.174Z,99.90
2022-08-31T01:44:16.279Z,99.90
2022-08-31T01:47:02.366Z,99.90
2022-08-31T01:49:47.817Z,99.90
2022-08-31T01:52:34.157Z,99.90
2022-08-31T01:55:19.886Z,99.90
2022-08-31T01:58:07.759Z,99.90
2022-08-31T02:01:31.280Z,99.90
2022-08-31T02:04:22.516Z,99.90
2022-08-31T02:07:08.033Z,99.90
2022-08-31T02:09:54.289Z,99.90
2022-08-31T02:12:39.502Z,99.90
2022-08-31T02:15:26.621Z,99.90
2022-08-31T02:18:12.029Z,99.90
2022-08-31T02:20:58.158Z,99.90
2022-08-31T02:23:45.659Z,99.90
2022-08-31T02:26:31.305Z,99.90
2022-08-31T02:29:18.001Z,99.90
2022-08-31T02:32:04.516Z,99.90
2022-08-31T02:34:50.467Z,99.90
2022-08-31T02:37:36.266Z,99.90
2022-08-31T02:40:22.261Z,99.90
2022-08-31T02:43:10.265Z,99.90
2022-08-31T02:46:00.496Z,99.90
2022-08-31T02:48:51.922Z,99.90
2022-08-31T02:51:41.414Z,99.90
2022-08-31T02:54:26.897Z,99.90
2022-08-31T02:57:12.386Z,99.90
2022-08-31T02:59:57.894Z,99.90
2022-08-31T03:02:45.850Z,99.90
2022-08-31T03:05:31.715Z,99.90
2022-08-31T03:08:17.627Z,99.90
2022-08-31T03:11:05.880Z,99.90
2022-08-31T03:13:56.457Z,99.90
2022-08-31T03:16:43.980Z,99.90
2022-08-31T03:19:29.484Z,99.90
2022-08-31T03:22:15.541Z,99.90
2022-08-31T03:25:04.063Z,99.90
2022-08-31T03:27:50.586Z,99.90
2022-08-31T03:30:36.325Z,99.90
2022-08-31T03:33:25.878Z,99.90
2022-08-31T03:36:11.384Z,99.90
2022-08-31T03:38:56.844Z,99.90
2022-08-31T03:41:42.498Z,99.90
2022-08-31T03:44:28.510Z,99.90
2022-08-31T03:47:14.925Z,99.90
2022-08-31T03:50:00.883Z,99.90
2022-08-31T03:52:58.858Z,99.90
2022-08-31T03:55:44.967Z,99.90
2022-08-31T03:58:31.508Z,99.90
2022-08-31T04:01:17.484Z,99.90
2022-08-31T04:04:28.910Z,99.90
2022-08-31T04:07:38.432Z,99.90
2022-08-31T04:10:50.604Z,99.90
2022-08-31T04:13:55.118Z,99.90
2022-08-31T04:16:55.927Z,99.90
2022-08-31T04:20:00.229Z,99.90
2022-08-31T04:23:02.030Z,99.90
2022-08-31T04:25:51.318Z,99.90
2022-08-31T04:28:36.947Z,99.90
2022-08-31T04:31:24.650Z,99.90
2022-08-31T04:34:10.207Z,99.90
2022-08-31T04:36:55.731Z,99.90
2022-08-31T04:39:50.913Z,99.90
2022-08-31T04:42:38.923Z,99.90
2022-08-31T04:45:24.650Z,99.90
2022-08-31T04:48:11.103Z,99.90
2022-08-31T04:51:04.403Z,99.90
2022-08-31T04:53:51.047Z,99.90
2022-08-31T04:56:40.857Z,99.90
2022-08-31T04:59:27.580Z,99.90
2022-08-31T05:02:42.255Z,99.90
2022-08-31T05:05:40.789Z,99.90
2022-08-31T05:08:27.722Z,99.90
2022-08-31T05:11:21.735Z,99.90
2022-08-31T05:14:10.576Z,99.90
2022-08-31T05:17:01.217Z,99.90
2022-08-31T05:19:51.025Z,99.90
2022-08-31T05:22:36.560Z,99.90
2022-08-31T05:25:22.131Z,99.90
2022-08-31T05:28:08.145Z,99.90
2022-08-31T05:30:53.593Z,99.90
2022-08-31T05:33:51.801Z,99.90
2022-08-31T05:36:44.906Z,99.90
2022-08-31T05:39:32.010Z,99.90
2022-08-31T05:42:17.469Z,99.90
2022-08-31T05:45:03.086Z,99.90
2022-08-31T05:47:49.386Z,99.90
2022-08-31T05:50:37.321Z,99.90
2022-08-31T05:53:25.250Z,99.90
2022-08-31T05:56:25.025Z,99.90
2022-08-31T05:59:14.541Z,99.90
2022-08-31T06:02:01.411Z,99.90
2022-08-31T06:04:55.333Z,99.90
2022-08-31T06:07:41.227Z,99.90
2022-08-31T06:10:32.340Z,99.90
2022-08-31T06:13:18.318Z,99.90
2022-08-31T06:16:04.409Z,99.90
2022-08-31T06:18:50.929Z,99.90
2022-08-31T06:21:50.435Z,99.90
2022-08-31T06:24:40.778Z,99.90
2022-08-31T06:27:27.487Z,99.90
2022-08-31T06:30:19.182Z,99.90
2022-08-31T06:33:05.173Z,99.90
2022-08-31T06:36:08.864Z,99.90
2022-08-31T06:39:12.464Z,99.90
2022-08-31T06:42:20.727Z,99.90
2022-08-31T06:45:21.358Z,99.90
2022-08-31T06:48:20.187Z,99.90
2022-08-31T06:51:08.441Z,99.90
2022-08-31T06:53:53.877Z,99.90
2022-08-31T06:56:58.837Z,99.90
2022-08-31T07:00:08.377Z,99.90
2022-08-31T07:03:23.002Z,99.90
2022-08-31T07:06:14.320Z,99.90
2022-08-31T07:09:03.842Z,99.90
2022-08-31T07:11:52.169Z,99.90
2022-08-31T07:14:37.967Z,99.90
2022-08-31T07:17:24.679Z,99.90
2022-08-31T07:20:10.396Z,99.90
2022-08-31T07:22:57.170Z,99.90
2022-08-31T07:25:55.313Z,99.90
2022-08-31T07:28:44.247Z,99.90
2022-08-31T07:31:40.149Z,99.90
2022-08-31T07:34:29.632Z,99.90
2022-08-31T07:37:48.729Z,99.90
2022-08-31T07:40:52.746Z,99.90
2022-08-31T07:43:38.562Z,99.90
2022-08-31T07:46:29.976Z,99.90
2022-08-31T07:49:16.490Z,99.90
2022-08-31T07:52:27.990Z,99.90
2022-08-31T07:55:29.199Z,99.90
2022-08-31T07:58:22.586Z,99.90
2022-08-31T08:01:08.902Z,99.90
2022-08-31T08:03:54.220Z,99.90
2022-08-31T08:07:00.503Z,99.90
2022-08-31T08:10:13.940Z,99.90
2022-08-31T08:13:21.099Z,99.90
2022-08-31T08:16:10.217Z,99.90
2022-08-31T08:19:13.700Z,99.90
2022-08-31T08:22:02.818Z,99.90
2022-08-31T08:24:55.694Z,99.90
2022-08-31T08:27:55.133Z,99.90
2022-08-31T08:30:47.471Z,99.90
2022-08-31T08:33:35.153Z,99.90
2022-08-31T08:36:20.885Z,99.90
2022-08-31T08:39:09.277Z,99.90
2022-08-31T08:41:57.904Z,99.90
2022-08-31T08:44:44.403Z,99.90
2022-08-31T08:47:38.308Z,99.90
2022-08-31T08:50:28.188Z,99.90
2022-08-31T08:53:15.209Z,99.90
2022-08-31T08:56:32.203Z,99.90
2022-08-31T08:59:19.959Z,99.90
2022-08-31T09:02:10.979Z,99.90
2022-08-31T09:05:25.078Z,99.90
2022-08-31T09:08:47.770Z,99.90
2022-08-31T09:11:59.602Z,99.90
2022-08-31T09:15:03.663Z,99.90
2022-08-31T09:18:03.546Z,99.90
2022-08-31T09:21:37.110Z,99.90
2022-08-31T09:24:30.211Z,99.90
2022-08-31T09:27:46.786Z,99.90
2022-08-31T09:30:45.074Z,99.90
2022-08-31T09:33:34.332Z,99.90
2022-08-31T09:36:22.622Z,99.90
2022-08-31T09:39:16.073Z,99.90
2022-08-31T09:42:14.469Z,99.90
2022-08-31T09:45:13.788Z,98.70
2022-08-31T09:48:03.161Z,99.60
2022-08-31T09:51:01.511Z,99.90
2022-08-31T09:54:05.508Z,99.90
2022-08-31T09:57:03.089Z,99.20
2022-08-31T09:59:49.936Z,99.90
2022-08-31T10:02:37.968Z,99.90
2022-08-31T10:05:41.689Z,99.90
2022-08-31T10:08:38.555Z,99.90
2022-08-31T10:11:30.896Z,99.90
2022-08-31T10:14:26.601Z,99.90
2022-08-31T10:17:37.970Z,99.90
2022-08-31T10:20:30.854Z,99.90
2022-08-31T10:23:26.852Z,99.90
2022-08-31T10:26:19.206Z,99.90
2022-08-31T10:29:48.488Z,99.90
2022-08-31T10:32:45.035Z,99.60
2022-08-31T10:35:43.836Z,99.90
2022-08-31T10:38:43.034Z,98.10
2022-08-31T10:41:33.001Z,95.90
2022-08-31T10:44:26.712Z,95.00
2022-08-31T10:47:14.257Z,94.20
2022-08-31T10:51:05.602Z,93.20
2022-08-31T10:54:09.942Z,91.90
2022-08-31T10:56:58.900Z,91.90
2022-08-31T10:59:59.689Z,91.60
2022-08-31T11:03:07.430Z,91.80
2022-08-31T11:06:04.838Z,91.50
2022-08-31T11:09:02.491Z,90.70
2022-08-31T11:12:07.917Z,90.70
2022-08-31T11:15:34.960Z,88.50
2022-08-31T11:18:39.842Z,88.30
2022-08-31T11:21:35.424Z,86.70
2022-08-31T11:24:32.666Z,88.50
2022-08-31T11:27:26.294Z,87.20
2022-08-31T11:30:24.327Z,88.00
2022-08-31T11:33:16.249Z,87.00
2022-08-31T11:36:07.647Z,86.40
2022-08-31T11:39:13.397Z,87.30
2022-08-31T11:41:59.142Z,84.40
2022-08-31T11:44:59.020Z,84.70
2022-08-31T11:47:44.806Z,82.80
2022-08-31T11:50:39.299Z,77.10
2022-08-31T11:53:41.056Z,71.90
2022-08-31T11:56:38.784Z,62.50
2022-08-31T11:59:35.183Z,59.90
2022-08-31T12:02:21.130Z,62.20
2022-08-31T12:05:07.884Z,59.10
2022-08-31T12:07:53.509Z,52.90
2022-08-31T12:10:54.122Z,42.70
2022-08-31T12:14:01.260Z,31.90
2022-08-31T12:17:02.727Z,31.10
2022-08-31T12:20:05.875Z,29.70
2022-08-31T12:23:28.678Z,27.70
2022-08-31T12:26:35.671Z,27.50
2022-08-31T12:29:24.402Z,24.60
2022-08-31T12:32:33.018Z,27.90
2022-08-31T12:35:22.617Z,24.50
2022-08-31T12:38:16.657Z,33.30
2022-08-31T12:41:03.456Z,34.90
2022-08-31T12:43:49.254Z,32.10
2022-08-31T12:47:05.504Z,32.60
2022-08-31T12:50:24.660Z,28.10
2022-08-31T12:53:19.558Z,29.30
2022-08-31T12:56:47.921Z,31.90
2022-08-31T12:59:59.964Z,31.00
2022-08-31T13:02:49.450Z,29.00
2022-08-31T13:05:38.817Z,28.40
2022-08-31T13:08:25.797Z,29.60
2022-08-31T13:11:23.088Z,29.50
2022-08-31T13:14:10.368Z,34.60
2022-08-31T13:17:00.373Z,39.40
2022-08-31T13:19:48.748Z,43.00
2022-08-31T13:22:41.258Z,46.80
2022-08-31T13:25:35.744Z,52.40
2022-08-31T13:28:30.095Z,51.80
2022-08-31T13:31:20.247Z,55.90
2022-08-31T13:34:09.704Z,58.20
2022-08-31T13:36:59.646Z,61.90
2022-08-31T13:39:46.409Z,62.30
2022-08-31T13:42:41.229Z,64.10
2022-08-31T13:45:33.370Z,57.50
2022-08-31T13:48:38.042Z,55.00
2022-08-31T13:51:38.566Z,57.00
2022-08-31T13:54:35.821Z,56.50
2022-08-31T13:57:25.843Z,57.30
2022-08-31T14:00:32.502Z,57.30
2022-08-31T14:03:49.312Z,58.20
2022-08-31T14:06:37.974Z,59.40
2022-08-31T14:09:23.347Z,56.60
2022-08-31T14:12:09.295Z,58.80
2022-08-31T14:14:55.314Z,58.60
2022-08-31T14:18:25.968Z,55.50
2022-08-31T14:21:22.685Z,56.40
2022-08-31T14:24:12.235Z,55.30
2022-08-31T14:26:59.283Z,54.50
2022-08-31T14:29:44.780Z,54.00
2022-08-31T14:32:33.184Z,55.50
2022-08-31T14:35:18.774Z,56.00
2022-08-31T14:38:04.200Z,53.90
2022-08-31T14:40:50.075Z,56.30
2022-08-31T14:43:35.666Z,60.50
2022-08-31T14:46:28.258Z,60.30
2022-08-31T14:49:13.712Z,64.70
2022-08-31T14:52:04.570Z,64.10
2022-08-31T14:54:49.946Z,66.80
2022-08-31T14:57:36.123Z,67.00
2022-08-31T15:00:23.308Z,71.00
2022-08-31T15:03:09.440Z,66.80
2022-08-31T15:05:54.998Z,68.60
2022-08-31T15:08:41.923Z,69.00
2022-08-31T15:11:27.494Z,67.90
2022-08-31T15:14:13.845Z,67.90
2022-08-31T15:17:01.044Z,66.40
2022-08-31T15:19:47.974Z,66.80
2022-08-31T15:22:34.985Z,68.50
2022-08-31T15:25:22.277Z,67.80
2022-08-31T15:28:08.643Z,71.40
2022-08-31T15:30:54.298Z,69.60
2022-08-31T15:33:41.296Z,65.50
2022-08-31T15:36:27.697Z,69.50
2022-08-31T15:39:14.614Z,67.40
2022-08-31T15:42:02.748Z,67.50
2022-08-31T15:44:57.000Z,70.80
2022-08-31T15:48:01.457Z,70.00
2022-08-31T15:51:00.341Z,69.00
2022-08-31T15:54:06.175Z,68.80
2022-08-31T15:56:55.442Z,70.10
2022-08-31T15:59:43.034Z,70.80
2022-08-31T16:02:33.262Z,68.70
2022-08-31T16:05:20.032Z,69.30
2022-08-31T16:08:11.333Z,69.00
2022-08-31T16:10:56.772Z,70.80
2022-08-31T16:13:49.096Z,72.30
2022-08-31T16:16:37.705Z,72.70
2022-08-31T16:19:35.107Z,71.60
2022-08-31T16:22:22.475Z,69.00
2022-08-31T16:25:14.238Z,72.20
2022-08-31T16:28:01.404Z,70.30
2022-08-31T16:30:47.321Z,68.70
2022-08-31T16:33:33.081Z,67.00
2022-08-31T16:36:20.267Z,67.20
2022-08-31T16:39:06.701Z,69.60
2022-08-31T16:41:52.013Z,68.60
2022-08-31T16:44:38.558Z,67.60
2022-08-31T16:47:24.756Z,67.10
2022-08-31T16:50:10.624Z,69.60
2022-08-31T16:52:56.409Z,67.00
2022-08-31T16:55:44.142Z,66.90
2022-08-31T17:01:44.256Z,69.00
2022-08-31T17:04:50.878Z,71.20
2022-08-31T17:07:35.573Z,71.50
2022-08-31T17:10:21.031Z,71.80
2022-08-31T17:13:07.181Z,71.10
2022-08-31T17:15:53.279Z,72.30
2022-08-31T17:18:40.996Z,71.20
2022-08-31T17:21:29.359Z,69.30
2022-08-31T17:24:24.127Z,71.30
2022-08-31T17:27:10.495Z,70.50
2022-08-31T17:29:56.421Z,70.40
2022-08-31T17:32:45.007Z,71.40
2022-08-31T17:35:31.916Z,71.50
2022-08-31T17:38:18.325Z,71.90
2022-08-31T17:41:06.154Z,72.40
2022-08-31T17:43:51.924Z,73.30
2022-08-31T17:46:38.028Z,73.40
2022-08-31T17:49:25.753Z,73.30
2022-08-31T17:52:11.788Z,74.60
2022-08-31T17:55:00.287Z,76.10
2022-08-31T17:57:46.111Z,76.60
2022-08-31T18:00:33.574Z,76.50
2022-08-31T18:03:19.291Z,77.10
2022-08-31T18:06:05.037Z,76.00
2022-08-31T18:08:50.665Z,74.80
2022-08-31T18:11:36.605Z,74.60
2022-08-31T18:14:25.291Z,75.70
2022-08-31T18:17:13.891Z,76.30
2022-08-31T18:19:59.329Z,76.00
2022-08-31T18:22:46.098Z,76.90
2022-08-31T18:25:35.973Z,78.20
2022-08-31T18:28:22.527Z,79.70
2022-08-31T18:31:08.279Z,80.40
2022-08-31T18:33:55.460Z,81.70
2022-08-31T18:36:42.155Z,82.50
2022-08-31T18:39:51.657Z,83.10
2022-08-31T18:42:57.399Z,84.00
2022-08-31T18:45:48.319Z,86.50
2022-08-31T18:48:33.760Z,86.50
2022-08-31T18:51:23.091Z,87.20
2022-08-31T18:54:08.923Z,88.60
2022-08-31T18:56:54.444Z,90.00
2022-08-31T18:59:40.137Z,90.60
2022-08-31T19:02:25.798Z,91.00
2022-08-31T19:05:15.222Z,90.80
2022-08-31T19:08:01.667Z,90.80
2022-08-31T19:10:49.235Z,91.30
2022-08-31T19:13:38.475Z,92.80
2022-08-31T19:16:28.907Z,93.90
2022-08-31T19:19:15.256Z,95.20
2022-08-31T19:22:01.117Z,95.80
2022-08-31T19:24:48.178Z,96.30
2022-08-31T19:27:35.187Z,96.50
2022-08-31T19:30:25.799Z,97.70
2022-08-31T19:33:14.623Z,98.50
2022-08-31T19:36:04.724Z,99.20
2022-08-31T19:38:50.396Z,99.90
2022-08-31T19:41:36.055Z,99.70
2022-08-31T19:44:22.225Z,99.90
2022-08-31T19:47:24.076Z,99.90
2022-08-31T19:50:14.990Z,99.90
2022-08-31T19:53:01.703Z,99.90
2022-08-31T19:55:50.515Z,99.90
2022-08-31T19:58:36.890Z,99.70
2022-08-31T20:01:25.056Z,99.70
2022-08-31T20:04:16.657Z,99.40
2022-08-31T20:07:07.383Z,99.40
2022-08-31T20:09:55.671Z,99.60
2022-08-31T20:12:45.685Z,99.20
2022-08-31T20:15:31.411Z,98.60
2022-08-31T20:18:17.946Z,98.90
2022-08-31T20:21:11.173Z,98.60
2022-08-31T20:24:06.698Z,99.00
2022-08-31T20:26:55.486Z,99.30
2022-08-31T20:29:42.750Z,99.90
2022-08-31T20:32:28.993Z,99.90
2022-08-31T20:35:14.457Z,99.90
2022-08-31T20:37:59.956Z,99.90
2022-08-31T20:40:48.157Z,99.90
2022-08-31T20:43:37.755Z,99.90
2022-08-31T20:46:41.559Z,99.90
2022-08-31T20:49:28.977Z,99.90
2022-08-31T20:52:16.785Z,99.90
2022-08-31T20:55:04.117Z,99.90
2022-08-31T20:57:51.043Z,99.90
2022-08-31T21:00:43.467Z,99.90
2022-08-31T21:03:29.016Z,99.90
2022-08-31T21:06:14.525Z,99.90
2022-08-31T21:09:00.164Z,99.90
2022-08-31T21:11:46.299Z,99.90
2022-08-31T21:14:32.254Z,99.90
2022-08-31T21:17:18.116Z,99.90
2022-08-31T21:20:05.486Z,99.90
2022-08-31T21:22:51.373Z,99.90
2022-08-31T21:25:45.360Z,99.90
2022-08-31T21:28:31.353Z,99.90
2022-08-31T21:31:28.485Z,99.90
2022-08-31T21:34:18.528Z,99.90
2022-08-31T21:37:05.278Z,99.90
2022-08-31T21:39:53.468Z,99.90
2022-08-31T21:42:42.707Z,99.90
2022-08-31T21:45:28.295Z,99.90
2022-08-31T21:48:13.718Z,99.90
2022-08-31T21:51:09.829Z,99.90
2022-08-31T21:53:58.875Z,99.90
2022-08-31T21:56:48.543Z,99.90
2022-08-31T21:59:35.900Z,99.90
2022-08-31T22:02:21.412Z,99.90
2022-08-31T22:05:09.432Z,99.90
2022-08-31T22:07:54.876Z,99.90
2022-08-31T22:10:42.746Z,99.90
2022-08-31T22:13:28.421Z,99.90
2022-08-31T22:16:19.921Z,99.90
2022-08-31T22:19:12.203Z,99.90
2022-08-31T22:22:01.322Z,99.90
2022-08-31T22:24:46.658Z,99.90
2022-08-31T22:27:32.005Z,99.90
2022-08-31T22:30:19.967Z,99.90
2022-08-31T22:33:05.409Z,99.90
2022-08-31T22:35:50.743Z,99.90
2022-08-31T22:38:36.625Z,99.90
2022-08-31T22:41:22.053Z,99.90
2022-08-31T22:44:10.707Z,99.90
2022-08-31T22:46:57.053Z,99.90
2022-08-31T22:49:42.188Z,99.90
2022-08-31T22:52:27.905Z,99.90
2022-08-31T22:55:13.604Z,99.90
2022-08-31T22:57:59.039Z,99.90
2022-08-31T23:00:47.849Z,99.90
2022-08-31T23:03:33.485Z,99.90
2022-08-31T23:06:20.686Z,99.90
2022-08-31T23:09:08.749Z,99.90
2022-08-31T23:11:55.716Z,99.90
2022-08-31T23:14:42.040Z,99.90
2022-08-31T23:17:27.347Z,99.90
2022-08-31T23:20:19.284Z,99.90
2022-08-31T23:23:05.992Z,99.90
2022-08-31T23:25:52.610Z,99.90
2022-08-31T23:28:39.377Z,99.90
2022-08-31T23:31:27.448Z,99.90
2022-08-31T23:34:13.190Z,99.90
2022-08-31T23:36:58.661Z,99.90
2022-08-31T23:39:45.830Z,99.90
2022-08-31T23:42:33.533Z,99.90
2022-08-31T23:45:19.255Z,99.90
2022-08-31T23:48:05.954Z,99.90
2022-08-31T23:50:51.365Z,99.90
2022-08-31T23:53:38.084Z,99.90
2022-08-31T23:56:36.079Z,99.90
2022-08-31T23:59:21.493Z,99.90
